Piney Bluff, Georgia
Current Conditions -  °F | °C
As of 4:01 AM on Monday 24 Nov 2014 (Local Time) from KSSI Reporting Station
Haze Haze  
Wind Chill: 65°   Ceiling: 1800
Heat Index: 65°   Visibility: 5mi
Dew Point: 65°   Wind: 6mph
Humidity: 100%   Direction: 170°S
Pressure: 29.87"   Gusts: NA
Location:  31.0438°N, 81.5786°W
Report Text: KSSI 240901Z AUTO 17005KT 5SM BR FEW009 BKN018 OVC090 18/18 A2987 RMK AO2 T01830183
Loading
Personal Weather Stations






























Interactive Weather Map New forecast layout! Learn more

10-Day Weather Forecast

Advertisements
Track Severe Weather on mobile